Results For
DQ Triathlon, Duathlon, & Aquabike at Vincentown *#

Vincentown, NJ 08088
Timing Services provided by . Questions About Results? Get in touch!

Use the filters boxes below to search results.

Interactive Version
Place Bib Name                Gender Age City               State Chip    Clock   Rank Swim    Pace  Rank Tran1   Rank Bike    Rate Rank Tran2   Rank Run     Pace  Div/Tot Div   Sex/Tot S Club                  
                                                                  Time    Time                                                                                                                                    
===== === =================== ====== === ================== ===== ======= ======= ==== ======= ===== ==== ======= ==== ======= ==== ==== ======= ==== ======= ===== ======= ===== ======= = ===================== 
1     143 Joe Hegge           M      53  Riverside          NJ    1:08:10 1:08:10 1    0:11:47 5:54  6    0:00:59 1    0:35:44 25.2 5    0:00:49 2    0:18:53 6:05  1/3     TOPMW 1/20    M Philadelphia Tri Club 
2     105 Marco Cardoso       M      50  Sayreville         NJ    1:11:29 1:11:29 2    0:11:47 5:54  5    0:00:53 4    0:39:38 22.7 1    0:00:44 1    0:18:29 5:57  2/3     TOPMW 2/20    M Tri856                
3     167 Stephen Smith       M      50  Clementon          NJ    1:13:52 1:13:52 5    0:13:23 6:42  2    0:00:47 3    0:37:54 23.7 2    0:00:44 3    0:21:05 6:48  3/3     TOPMW 3/20    M                       
4     6   David Hilton        M      63  Philadelphia       PA    1:17:02 1:17:02 10   0:15:01 7:31  11   0:01:08 2    0:36:16 24.8 6    0:00:53 8    0:23:47 7:40  1/3     M6064 4/20    M                       
5     109 Stephen Hranilovich M      59  Phoenixville       PA    1:17:25 1:17:25 4    0:12:51 6:26  13   0:01:14 5    0:40:02 22.5 18   0:01:22 4    0:21:59 7:05  1/2     M5559 5/20    M Turks Head Racing     
6     46  Maggie Freeman      F      53  Millstone Township NJ    1:19:28 1:19:28 7    0:14:17 7:09  4    0:00:49 6    0:40:42 22.1 3    0:00:45 7    0:22:57 7:24  1/3     TOPFW 1/7     F Team Zebra            
7     182 Tim Hayburn         M      45  Ardmore            PA    1:21:42 1:21:42 3    0:12:14 6:07  3    0:00:48 13   0:45:13 19.9 4    0:00:49 6    0:22:40 7:18  1/4     M4549 6/20    M                       
8     56  Annie Londregan     F      27  Philadelphia       PA    1:26:40 1:26:40 9    0:14:54 7:27  7    0:01:00 12   0:45:08 19.9 7    0:00:53 10   0:24:47 7:59  2/3     TOPFW 2/7     F T3 Triathlon          
9     137 Craig Girvan        M      52  Highland Park      NJ    1:27:21 1:27:21 11   0:15:09 7:35  19   0:01:31 11   0:45:01 20   23   0:01:38 9    0:24:03 7:45  1/2     M5054 7/20    M                       
10    142 Sean McInnes        M      49  Succasunna         NJ    1:27:54 1:27:54 8    0:14:44 7:22  9    0:01:06 7    0:42:51 21   17   0:01:22 18   0:27:53 8:59  2/4     M4549 8/20    M                       
11    185 Jill Cardamone      F      32  Philadelphia       PA    1:29:13 1:29:13 6    0:13:51 6:56  20   0:01:31 19   0:50:07 18   20   0:01:30 5    0:22:17 7:11  3/3     TOPFW 3/7     F Philadelphia Tri Club 
12    59  Kerry Gillespie     M      70  Middletown         NJ    1:29:22 1:29:22 15   0:16:14 8:07  8    0:01:05 10   0:44:36 20.2 16   0:01:21 14   0:26:08 8:25  1/1     M7074 9/20    M                       
13    94  Brian Zobel         M      65  Haddonfield        NJ    1:30:44 1:30:44 16   0:16:47 8:24  10   0:01:07 14   0:45:22 19.8 10   0:00:59 15   0:26:31 8:33  1/1     M6569 10/20   M Tri856                
14    118 Steven Pratt        M      48  Vincentown         NJ    1:31:14 1:31:14 18   0:16:56 8:28  12   0:01:12 15   0:46:13 19.5 9    0:00:56 13   0:25:59 8:22  3/4     M4549 11/20   M                       
15    120 Therese Johnston    F      59  Narberth           PA    1:31:25 1:31:25 19   0:17:14 8:37  21   0:01:39 9    0:44:25 20.3 21   0:01:31 16   0:26:38 8:35  1/1     F5559 4/7     F Cadence Racing        
16    154 Stacy Parker        F      42  Gibbstown          NJ    1:34:13 1:34:13 17   0:16:51 8:26  1    0:00:45 16   0:48:03 18.7 8    0:00:55 17   0:27:41 8:55  1/3     F4044 5/7     F                       
17    184 Patrick Doyle       M      46  Vincentown         NJ    1:34:49 1:34:49 25   0:18:44 9:22  15   0:01:19 8    0:44:11 20.4 15   0:01:16 21   0:29:22 9:28  1/1     PCOPM 12/20   M                       
18    180 Chris Burrell       M      33  Cape May           NJ    1:35:38 1:35:38 13   0:16:06 8:03  17   0:01:26 18   0:50:01 18   26   0:02:19 12   0:25:49 8:19  1/1     M3034 13/20   M                       
19    22  Caitlin Berman      F      43  Moorestown         NJ    1:36:48 1:36:48 12   0:15:56 7:58  16   0:01:26 23   0:52:28 17.2 19   0:01:28 11   0:25:33 8:14  2/3     F4044 6/7     F                       
20    157 Jaroslaw Kozlowski  M      37  Parlin             NJ    1:37:53 1:37:53 14   0:16:07 8:04  14   0:01:14 21   0:50:37 17.8 11   0:01:09 20   0:28:48 9:17  1/1     M3539 14/20   M                       
21    31  Bob Zipperlen       M      61  Jenkintown         PA    1:41:04 1:41:04 23   0:18:31 9:16  18   0:01:26 20   0:50:20 17.9 13   0:01:14 22   0:29:35 9:32  2/3     M6064 15/20   M                       
22    48  Stephen Rech        M      53  Philadelphia       PA    1:42:43 1:42:43 26   0:18:50 9:25  24   0:01:47 17   0:49:08 18.3 14   0:01:16 24   0:31:45 10:13 2/2     M5054 16/20   M                       
23    179 Ned Corini          M      58  Cape May           NJ    1:43:21 1:43:21 22   0:17:58 8:59  26   0:02:16 24   0:53:05 17   24   0:01:46 19   0:28:19 9:07  2/2     M5559 17/20   M                       
24    158 Jenn Fiduccia       F      40  Toms River         NJ    1:47:46 1:47:46 20   0:17:52 8:56  25   0:01:53 25   0:53:49 16.7 12   0:01:12 25   0:33:03 10:39 3/3     F4044 7/7     F                       
25    128 Robert Germanovich  M      48  Brookhaven         PA    1:48:59 1:48:59 24   0:18:41 9:21  23   0:01:40 22   0:52:22 17.2 22   0:01:32 26   0:34:46 11:12 4/4     M4549 18/20   M Turks Head Racing     
26    181 Edward Scioli       M      60  Mount Laurel       NJ    1:49:08 1:49:08 21   0:17:58 8:59  22   0:01:39 27   0:56:46 15.9 25   0:02:00 23   0:30:47 9:55  3/3     M6064 19/20   M                       
27    138 Werner Colmon       M      62  East Brunswick     NJ    2:13:25 2:13:25 27   0:24:17 12:09 27   0:03:45 26   0:55:31 16.2 27   0:02:50 27   0:47:04 15:09 1/1     CLYDE 20/20   M                       

If you continue to use this site, you consent to use all cookies. We use cookies to offer you a better browsing experience. Read how we use cookies and how you can control them by visiting our Privacy Policy.

If you continue to use this site, you consent to use all cookies.